sensor_id;sensor_type;location;lat;lon;timestamp;P1;durP1;ratioP1;P2;durP2;ratioP2
16979;SDS011;42288;52.182;21.156;2023-03-23T00:00:05;42.33;;;23.57;;
16979;SDS011;42288;52.182;21.156;2023-03-23T00:02:32;40.50;;;22.70;;
16979;SDS011;42288;52.182;21.156;2023-03-23T00:05:00;42.03;;;24.00;;
16979;SDS011;42288;52.182;21.156;2023-03-23T00:07:28;42.63;;;22.67;;
16979;SDS011;42288;52.182;21.156;2023-03-23T00:09:54;41.07;;;23.60;;
16979;SDS011;42288;52.182;21.156;2023-03-23T00:12:24;40.37;;;23.43;;
16979;SDS011;42288;52.182;21.156;2023-03-23T00:15:07;39.70;;;22.00;;
16979;SDS011;42288;52.182;21.156;2023-03-23T00:17:33;45.40;;;25.33;;
16979;SDS011;42288;52.182;21.156;2023-03-23T00:20:00;39.97;;;22.23;;
16979;SDS011;42288;52.182;21.156;2023-03-23T00:22:29;41.87;;;22.97;;
16979;SDS011;42288;52.182;21.156;2023-03-23T00:24:55;40.67;;;22.77;;
16979;SDS011;42288;52.182;21.156;2023-03-23T00:27:21;44.73;;;23.80;;
16979;SDS011;42288;52.182;21.156;2023-03-23T00:29:47;42.67;;;22.70;;
16979;SDS011;42288;52.182;21.156;2023-03-23T00:32:17;45.20;;;24.07;;
16979;SDS011;42288;52.182;21.156;2023-03-23T00:34:45;43.57;;;24.53;;
16979;SDS011;42288;52.182;21.156;2023-03-23T00:37:13;49.37;;;26.53;;
16979;SDS011;42288;52.182;21.156;2023-03-23T00:39:41;50.27;;;25.97;;
16979;SDS011;42288;52.182;21.156;2023-03-23T00:42:10;47.00;;;25.80;;
16979;SDS011;42288;52.182;21.156;2023-03-23T00:44:37;49.90;;;26.33;;
16979;SDS011;42288;52.182;21.156;2023-03-23T00:47:04;44.80;;;23.77;;
16979;SDS011;42288;52.182;21.156;2023-03-23T00:49:31;44.53;;;26.33;;
16979;SDS011;42288;52.182;21.156;2023-03-23T00:51:59;46.33;;;23.37;;
16979;SDS011;42288;52.182;21.156;2023-03-23T00:54:26;46.03;;;25.27;;
16979;SDS011;42288;52.182;21.156;2023-03-23T00:56:52;41.60;;;23.50;;
16979;SDS011;42288;52.182;21.156;2023-03-23T00:59:18;44.70;;;26.00;;
16979;SDS011;42288;52.182;21.156;2023-03-23T01:01:44;46.17;;;23.13;;
16979;SDS011;42288;52.182;21.156;2023-03-23T01:04:11;45.83;;;24.77;;
16979;SDS011;42288;52.182;21.156;2023-03-23T01:06:37;42.33;;;23.30;;
16979;SDS011;42288;52.182;21.156;2023-03-23T01:09:08;39.83;;;21.00;;
16979;SDS011;42288;52.182;21.156;2023-03-23T01:11:36;45.80;;;25.60;;
16979;SDS011;42288;52.182;21.156;2023-03-23T01:14:03;42.10;;;22.53;;
16979;SDS011;42288;52.182;21.156;2023-03-23T01:16:29;42.63;;;24.07;;
16979;SDS011;42288;52.182;21.156;2023-03-23T01:18:54;40.00;;;21.27;;
16979;SDS011;42288;52.182;21.156;2023-03-23T01:21:21;40.17;;;23.20;;
16979;SDS011;42288;52.182;21.156;2023-03-23T01:23:46;42.97;;;21.93;;
16979;SDS011;42288;52.182;21.156;2023-03-23T01:26:13;40.47;;;23.80;;
16979;SDS011;42288;52.182;21.156;2023-03-23T01:28:41;40.93;;;22.73;;
16979;SDS011;42288;52.182;21.156;2023-03-23T01:31:08;45.13;;;24.23;;
16979;SDS011;42288;52.182;21.156;2023-03-23T01:33:37;36.43;;;21.00;;
16979;SDS011;42288;52.182;21.156;2023-03-23T01:36:04;40.67;;;23.23;;
16979;SDS011;42288;52.182;21.156;2023-03-23T01:38:32;43.77;;;23.87;;
16979;SDS011;42288;52.182;21.156;2023-03-23T01:40:58;40.57;;;22.83;;
16979;SDS011;42288;52.182;21.156;2023-03-23T01:43:25;43.53;;;24.00;;
16979;SDS011;42288;52.182;21.156;2023-03-23T01:45:50;43.03;;;23.10;;
16979;SDS011;42288;52.182;21.156;2023-03-23T01:53:20;43.00;;;23.33;;
16979;SDS011;42288;52.182;21.156;2023-03-23T01:55:47;38.70;;;22.90;;
16979;SDS011;42288;52.182;21.156;2023-03-23T01:58:15;44.10;;;23.27;;
16979;SDS011;42288;52.182;21.156;2023-03-23T02:00:44;41.50;;;21.97;;
16979;SDS011;42288;52.182;21.156;2023-03-23T02:03:11;42.87;;;23.70;;
16979;SDS011;42288;52.182;21.156;2023-03-23T02:05:40;40.77;;;21.67;;
16979;SDS011;42288;52.182;21.156;2023-03-23T02:08:06;40.50;;;21.57;;
16979;SDS011;42288;52.182;21.156;2023-03-23T02:10:34;42.20;;;21.30;;
16979;SDS011;42288;52.182;21.156;2023-03-23T02:13:01;44.93;;;23.47;;
16979;SDS011;42288;52.182;21.156;2023-03-23T02:15:41;41.07;;;23.40;;
16979;SDS011;42288;52.182;21.156;2023-03-23T02:23:50;40.60;;;22.10;;
16979;SDS011;42288;52.182;21.156;2023-03-23T02:26:19;38.90;;;20.93;;
16979;SDS011;42288;52.182;21.156;2023-03-23T02:36:44;34.83;;;20.50;;
16979;SDS011;42288;52.182;21.156;2023-03-23T02:39:23;40.13;;;22.87;;
16979;SDS011;42288;52.182;21.156;2023-03-23T02:41:52;37.03;;;20.37;;
16979;SDS011;42288;52.182;21.156;2023-03-23T02:44:22;39.87;;;20.23;;
16979;SDS011;42288;52.182;21.156;2023-03-23T02:46:49;41.53;;;22.93;;
16979;SDS011;42288;52.182;21.156;2023-03-23T02:49:18;41.67;;;22.20;;
16979;SDS011;42288;52.182;21.156;2023-03-23T02:51:46;41.70;;;22.67;;
16979;SDS011;42288;52.182;21.156;2023-03-23T02:54:13;45.00;;;23.73;;
16979;SDS011;42288;52.182;21.156;2023-03-23T02:56:41;37.67;;;21.10;;
16979;SDS011;42288;52.182;21.156;2023-03-23T02:59:08;43.63;;;24.03;;
16979;SDS011;42288;52.182;21.156;2023-03-23T03:04:01;40.87;;;23.80;;
16979;SDS011;42288;52.182;21.156;2023-03-23T03:09:41;39.63;;;22.27;;
16979;SDS011;42288;52.182;21.156;2023-03-23T03:12:19;40.30;;;21.13;;
16979;SDS011;42288;52.182;21.156;2023-03-23T03:18:31;38.60;;;20.43;;
16979;SDS011;42288;52.182;21.156;2023-03-23T03:20:48;39.10;;;21.60;;
16979;SDS011;42288;52.182;21.156;2023-03-23T03:23:27;40.50;;;23.00;;
16979;SDS011;42288;52.182;21.156;2023-03-23T03:25:54;41.70;;;24.20;;
16979;SDS011;42288;52.182;21.156;2023-03-23T03:28:22;37.47;;;21.77;;
16979;SDS011;42288;52.182;21.156;2023-03-23T03:30:52;39.37;;;21.33;;
16979;SDS011;42288;52.182;21.156;2023-03-23T03:33:20;36.03;;;20.63;;
16979;SDS011;42288;52.182;21.156;2023-03-23T03:35:50;37.60;;;20.13;;
16979;SDS011;42288;52.182;21.156;2023-03-23T03:38:19;37.80;;;20.57;;
16979;SDS011;42288;52.182;21.156;2023-03-23T03:40:44;42.17;;;22.60;;
16979;SDS011;42288;52.182;21.156;2023-03-23T03:43:10;35.43;;;20.77;;
16979;SDS011;42288;52.182;21.156;2023-03-23T03:45:36;36.67;;;20.10;;
16979;SDS011;42288;52.182;21.156;2023-03-23T03:48:01;38.37;;;21.70;;
16979;SDS011;42288;52.182;21.156;2023-03-23T03:50:27;37.40;;;21.53;;
16979;SDS011;42288;52.182;21.156;2023-03-23T03:52:53;36.73;;;21.43;;
16979;SDS011;42288;52.182;21.156;2023-03-23T03:55:19;38.27;;;20.80;;
16979;SDS011;42288;52.182;21.156;2023-03-23T03:57:44;36.53;;;21.13;;
16979;SDS011;42288;52.182;21.156;2023-03-23T04:00:10;40.40;;;21.50;;
16979;SDS011;42288;52.182;21.156;2023-03-23T04:02:40;43.67;;;23.43;;
16979;SDS011;42288;52.182;21.156;2023-03-23T04:05:07;40.37;;;22.57;;
16979;SDS011;42288;52.182;21.156;2023-03-23T04:07:34;36.57;;;20.80;;
16979;SDS011;42288;52.182;21.156;2023-03-23T04:10:03;41.27;;;22.57;;
16979;SDS011;42288;52.182;21.156;2023-03-23T04:12:30;39.00;;;22.50;;
16979;SDS011;42288;52.182;21.156;2023-03-23T04:14:56;33.90;;;18.57;;
16979;SDS011;42288;52.182;21.156;2023-03-23T04:17:22;39.37;;;22.53;;
16979;SDS011;42288;52.182;21.156;2023-03-23T04:19:51;38.03;;;21.90;;
16979;SDS011;42288;52.182;21.156;2023-03-23T04:22:17;37.87;;;20.67;;
16979;SDS011;42288;52.182;21.156;2023-03-23T04:24:42;38.47;;;20.87;;
16979;SDS011;42288;52.182;21.156;2023-03-23T04:27:08;33.47;;;19.17;;
16979;SDS011;42288;52.182;21.156;2023-03-23T04:29:34;34.50;;;20.20;;
16979;SDS011;42288;52.182;21.156;2023-03-23T04:31:59;39.80;;;21.23;;
16979;SDS011;42288;52.182;21.156;2023-03-23T04:34:26;35.77;;;19.73;;
16979;SDS011;42288;52.182;21.156;2023-03-23T04:36:52;33.77;;;18.13;;
16979;SDS011;42288;52.182;21.156;2023-03-23T04:39:18;36.53;;;21.57;;
16979;SDS011;42288;52.182;21.156;2023-03-23T04:41:43;34.13;;;18.47;;
16979;SDS011;42288;52.182;21.156;2023-03-23T04:44:10;33.33;;;19.43;;
16979;SDS011;42288;52.182;21.156;2023-03-23T04:46:42;32.80;;;17.57;;
16979;SDS011;42288;52.182;21.156;2023-03-23T04:49:10;38.23;;;20.80;;
16979;SDS011;42288;52.182;21.156;2023-03-23T04:51:36;35.20;;;18.80;;
16979;SDS011;42288;52.182;21.156;2023-03-23T04:54:01;33.30;;;18.30;;
16979;SDS011;42288;52.182;21.156;2023-03-23T04:56:27;33.77;;;18.37;;
16979;SDS011;42288;52.182;21.156;2023-03-23T04:58:52;33.00;;;18.83;;
16979;SDS011;42288;52.182;21.156;2023-03-23T05:01:18;33.53;;;17.87;;
16979;SDS011;42288;52.182;21.156;2023-03-23T05:03:44;30.63;;;17.77;;
16979;SDS011;42288;52.182;21.156;2023-03-23T05:06:10;32.57;;;17.70;;
16979;SDS011;42288;52.182;21.156;2023-03-23T05:08:36;37.87;;;20.17;;
16979;SDS011;42288;52.182;21.156;2023-03-23T05:11:04;31.13;;;18.53;;
16979;SDS011;42288;52.182;21.156;2023-03-23T05:13:31;31.33;;;18.33;;
16979;SDS011;42288;52.182;21.156;2023-03-23T05:15:57;32.33;;;17.87;;
16979;SDS011;42288;52.182;21.156;2023-03-23T05:18:23;31.73;;;18.60;;
16979;SDS011;42288;52.182;21.156;2023-03-23T05:20:51;35.03;;;20.20;;
16979;SDS011;42288;52.182;21.156;2023-03-23T05:23:18;32.67;;;18.90;;
16979;SDS011;42288;52.182;21.156;2023-03-23T05:25:53;38.67;;;21.33;;
16979;SDS011;42288;52.182;21.156;2023-03-23T05:28:19;36.20;;;20.87;;
16979;SDS011;42288;52.182;21.156;2023-03-23T05:30:47;34.07;;;19.43;;
16979;SDS011;42288;52.182;21.156;2023-03-23T05:33:13;41.30;;;21.67;;
16979;SDS011;42288;52.182;21.156;2023-03-23T05:35:39;32.20;;;17.90;;
16979;SDS011;42288;52.182;21.156;2023-03-23T05:38:04;39.67;;;19.57;;
16979;SDS011;42288;52.182;21.156;2023-03-23T05:40:30;36.37;;;18.90;;
16979;SDS011;42288;52.182;21.156;2023-03-23T05:42:55;33.23;;;19.30;;
16979;SDS011;42288;52.182;21.156;2023-03-23T05:45:23;29.47;;;17.60;;
16979;SDS011;42288;52.182;21.156;2023-03-23T05:47:50;32.90;;;18.07;;
16979;SDS011;42288;52.182;21.156;2023-03-23T05:50:16;31.40;;;18.00;;
16979;SDS011;42288;52.182;21.156;2023-03-23T05:52:42;33.83;;;18.93;;
16979;SDS011;42288;52.182;21.156;2023-03-23T05:55:08;37.80;;;19.17;;
16979;SDS011;42288;52.182;21.156;2023-03-23T05:57:34;31.73;;;18.20;;
16979;SDS011;42288;52.182;21.156;2023-03-23T06:00:00;31.63;;;18.37;;
16979;SDS011;42288;52.182;21.156;2023-03-23T06:02:38;32.53;;;17.63;;
16979;SDS011;42288;52.182;21.156;2023-03-23T06:05:04;32.20;;;17.63;;
16979;SDS011;42288;52.182;21.156;2023-03-23T06:07:30;31.13;;;17.07;;
16979;SDS011;42288;52.182;21.156;2023-03-23T06:09:56;28.97;;;17.23;;
16979;SDS011;42288;52.182;21.156;2023-03-23T06:12:22;30.00;;;15.63;;
16979;SDS011;42288;52.182;21.156;2023-03-23T06:14:49;33.17;;;16.57;;
16979;SDS011;42288;52.182;21.156;2023-03-23T06:17:15;30.93;;;17.60;;
16979;SDS011;42288;52.182;21.156;2023-03-23T06:19:42;29.93;;;16.67;;
16979;SDS011;42288;52.182;21.156;2023-03-23T06:22:08;28.33;;;15.53;;
16979;SDS011;42288;52.182;21.156;2023-03-23T06:24:35;26.43;;;16.53;;
16979;SDS011;42288;52.182;21.156;2023-03-23T06:27:01;35.23;;;16.03;;
16979;SDS011;42288;52.182;21.156;2023-03-23T06:29:27;31.47;;;15.90;;
16979;SDS011;42288;52.182;21.156;2023-03-23T06:31:56;30.53;;;16.33;;
16979;SDS011;42288;52.182;21.156;2023-03-23T06:34:25;30.13;;;16.07;;
16979;SDS011;42288;52.182;21.156;2023-03-23T06:36:51;29.03;;;15.73;;
16979;SDS011;42288;52.182;21.156;2023-03-23T06:39:17;27.90;;;14.83;;
16979;SDS011;42288;52.182;21.156;2023-03-23T06:41:43;30.07;;;16.63;;
16979;SDS011;42288;52.182;21.156;2023-03-23T06:44:08;24.17;;;14.57;;
16979;SDS011;42288;52.182;21.156;2023-03-23T06:46:38;27.10;;;15.17;;
16979;SDS011;42288;52.182;21.156;2023-03-23T06:49:05;24.83;;;14.40;;
16979;SDS011;42288;52.182;21.156;2023-03-23T06:51:30;22.67;;;13.90;;
16979;SDS011;42288;52.182;21.156;2023-03-23T06:53:56;24.13;;;14.40;;
16979;SDS011;42288;52.182;21.156;2023-03-23T06:56:22;30.73;;;15.50;;
16979;SDS011;42288;52.182;21.156;2023-03-23T06:58:48;24.80;;;13.07;;
16979;SDS011;42288;52.182;21.156;2023-03-23T07:01:14;23.83;;;13.73;;
16979;SDS011;42288;52.182;21.156;2023-03-23T07:03:40;25.27;;;13.80;;
16979;SDS011;42288;52.182;21.156;2023-03-23T07:06:07;21.30;;;12.90;;
16979;SDS011;42288;52.182;21.156;2023-03-23T07:08:33;24.73;;;13.13;;
16979;SDS011;42288;52.182;21.156;2023-03-23T07:10:59;21.83;;;12.43;;
16979;SDS011;42288;52.182;21.156;2023-03-23T07:13:25;22.00;;;13.13;;
16979;SDS011;42288;52.182;21.156;2023-03-23T07:15:51;21.10;;;12.83;;
16979;SDS011;42288;52.182;21.156;2023-03-23T07:18:17;27.17;;;12.13;;
16979;SDS011;42288;52.182;21.156;2023-03-23T07:20:42;28.00;;;12.93;;
16979;SDS011;42288;52.182;21.156;2023-03-23T07:23:08;24.13;;;12.17;;
16979;SDS011;42288;52.182;21.156;2023-03-23T07:25:34;20.70;;;12.43;;
16979;SDS011;42288;52.182;21.156;2023-03-23T07:28:01;24.40;;;11.73;;
16979;SDS011;42288;52.182;21.156;2023-03-23T07:30:28;21.10;;;12.67;;
16979;SDS011;42288;52.182;21.156;2023-03-23T07:32:57;18.67;;;11.33;;
16979;SDS011;42288;52.182;21.156;2023-03-23T07:35:23;20.53;;;11.57;;
16979;SDS011;42288;52.182;21.156;2023-03-23T07:37:49;20.17;;;10.70;;
16979;SDS011;42288;52.182;21.156;2023-03-23T07:40:16;20.13;;;11.13;;
16979;SDS011;42288;52.182;21.156;2023-03-23T07:42:43;20.33;;;11.00;;
16979;SDS011;42288;52.182;21.156;2023-03-23T07:45:11;18.07;;;10.53;;
16979;SDS011;42288;52.182;21.156;2023-03-23T07:47:38;20.80;;;10.27;;
16979;SDS011;42288;52.182;21.156;2023-03-23T07:50:05;16.83;;;10.07;;
16979;SDS011;42288;52.182;21.156;2023-03-23T07:52:31;17.23;;;10.77;;
16979;SDS011;42288;52.182;21.156;2023-03-23T07:54:58;16.37;;;9.50;;
16979;SDS011;42288;52.182;21.156;2023-03-23T07:57:26;17.53;;;10.33;;
16979;SDS011;42288;52.182;21.156;2023-03-23T07:59:52;18.73;;;10.07;;
16979;SDS011;42288;52.182;21.156;2023-03-23T08:02:18;17.97;;;9.53;;
16979;SDS011;42288;52.182;21.156;2023-03-23T08:04:44;19.63;;;9.33;;
16979;SDS011;42288;52.182;21.156;2023-03-23T08:07:09;17.60;;;9.80;;
16979;SDS011;42288;52.182;21.156;2023-03-23T08:09:40;17.47;;;9.87;;
16979;SDS011;42288;52.182;21.156;2023-03-23T08:12:06;14.37;;;9.10;;
16979;SDS011;42288;52.182;21.156;2023-03-23T08:14:31;14.33;;;8.90;;
16979;SDS011;42288;52.182;21.156;2023-03-23T08:16:57;16.67;;;9.20;;
16979;SDS011;42288;52.182;21.156;2023-03-23T08:19:23;15.40;;;8.67;;
16979;SDS011;42288;52.182;21.156;2023-03-23T08:21:49;17.47;;;9.43;;
16979;SDS011;42288;52.182;21.156;2023-03-23T08:24:15;17.17;;;9.33;;
16979;SDS011;42288;52.182;21.156;2023-03-23T08:26:41;12.90;;;8.37;;
16979;SDS011;42288;52.182;21.156;2023-03-23T08:29:07;18.93;;;8.83;;
16979;SDS011;42288;52.182;21.156;2023-03-23T08:31:34;15.20;;;8.60;;
16979;SDS011;42288;52.182;21.156;2023-03-23T08:34:00;13.20;;;7.83;;
16979;SDS011;42288;52.182;21.156;2023-03-23T08:36:26;14.87;;;8.20;;
16979;SDS011;42288;52.182;21.156;2023-03-23T08:38:53;15.90;;;8.33;;
16979;SDS011;42288;52.182;21.156;2023-03-23T08:41:19;14.23;;;7.53;;
16979;SDS011;42288;52.182;21.156;2023-03-23T08:43:45;13.87;;;7.43;;
16979;SDS011;42288;52.182;21.156;2023-03-23T08:46:13;15.63;;;7.17;;
16979;SDS011;42288;52.182;21.156;2023-03-23T08:48:40;14.43;;;7.57;;
16979;SDS011;42288;52.182;21.156;2023-03-23T08:51:05;12.73;;;6.90;;
16979;SDS011;42288;52.182;21.156;2023-03-23T08:53:32;13.53;;;7.33;;
16979;SDS011;42288;52.182;21.156;2023-03-23T08:56:09;10.30;;;6.30;;
16979;SDS011;42288;52.182;21.156;2023-03-23T08:58:37;12.13;;;6.57;;
16979;SDS011;42288;52.182;21.156;2023-03-23T09:01:04;10.63;;;6.10;;
16979;SDS011;42288;52.182;21.156;2023-03-23T09:03:31;11.60;;;6.17;;
16979;SDS011;42288;52.182;21.156;2023-03-23T09:05:58;9.13;;;5.80;;
16979;SDS011;42288;52.182;21.156;2023-03-23T09:08:25;9.20;;;5.83;;
16979;SDS011;42288;52.182;21.156;2023-03-23T09:10:53;9.63;;;5.70;;
16979;SDS011;42288;52.182;21.156;2023-03-23T09:13:20;10.03;;;5.80;;
16979;SDS011;42288;52.182;21.156;2023-03-23T09:15:46;10.00;;;5.97;;
16979;SDS011;42288;52.182;21.156;2023-03-23T09:18:12;12.77;;;5.80;;
16979;SDS011;42288;52.182;21.156;2023-03-23T09:20:38;14.00;;;5.67;;
16979;SDS011;42288;52.182;21.156;2023-03-23T09:23:03;9.90;;;5.53;;
16979;SDS011;42288;52.182;21.156;2023-03-23T09:25:30;9.17;;;5.20;;
16979;SDS011;42288;52.182;21.156;2023-03-23T09:27:57;11.03;;;5.80;;
16979;SDS011;42288;52.182;21.156;2023-03-23T09:30:24;9.17;;;5.00;;
16979;SDS011;42288;52.182;21.156;2023-03-23T09:32:55;11.87;;;5.53;;
16979;SDS011;42288;52.182;21.156;2023-03-23T09:35:21;9.50;;;4.80;;
16979;SDS011;42288;52.182;21.156;2023-03-23T09:37:48;10.03;;;5.23;;
16979;SDS011;42288;52.182;21.156;2023-03-23T09:40:20;9.43;;;4.70;;
16979;SDS011;42288;52.182;21.156;2023-03-23T09:43:06;9.10;;;4.83;;
16979;SDS011;42288;52.182;21.156;2023-03-23T09:48:49;10.50;;;5.20;;
16979;SDS011;42288;52.182;21.156;2023-03-23T09:51:40;10.47;;;4.73;;
16979;SDS011;42288;52.182;21.156;2023-03-23T09:56:38;11.13;;;4.87;;
16979;SDS011;42288;52.182;21.156;2023-03-23T09:59:12;9.90;;;5.37;;
16979;SDS011;42288;52.182;21.156;2023-03-23T10:01:53;13.53;;;5.47;;
16979;SDS011;42288;52.182;21.156;2023-03-23T10:04:31;9.43;;;5.40;;
16979;SDS011;42288;52.182;21.156;2023-03-23T10:07:10;12.53;;;5.90;;
16979;SDS011;42288;52.182;21.156;2023-03-23T10:09:42;10.37;;;5.87;;
16979;SDS011;42288;52.182;21.156;2023-03-23T10:12:13;13.87;;;6.10;;
16979;SDS011;42288;52.182;21.156;2023-03-23T10:23:09;8.50;;;4.80;;
16979;SDS011;42288;52.182;21.156;2023-03-23T10:26:04;11.33;;;5.00;;
16979;SDS011;42288;52.182;21.156;2023-03-23T10:28:40;8.93;;;4.83;;
16979;SDS011;42288;52.182;21.156;2023-03-23T10:31:16;9.47;;;4.80;;
16979;SDS011;42288;52.182;21.156;2023-03-23T10:33:48;7.47;;;4.80;;
16979;SDS011;42288;52.182;21.156;2023-03-23T10:36:18;9.40;;;5.03;;
16979;SDS011;42288;52.182;21.156;2023-03-23T10:39:02;9.97;;;5.60;;
16979;SDS011;42288;52.182;21.156;2023-03-23T10:41:31;10.83;;;5.27;;
16979;SDS011;42288;52.182;21.156;2023-03-23T10:43:56;9.40;;;5.00;;
16979;SDS011;42288;52.182;21.156;2023-03-23T10:49:02;8.70;;;4.87;;
16979;SDS011;42288;52.182;21.156;2023-03-23T10:51:35;7.13;;;5.00;;
16979;SDS011;42288;52.182;21.156;2023-03-23T10:54:03;10.37;;;4.97;;
16979;SDS011;42288;52.182;21.156;2023-03-23T11:01:57;6.72;;;3.90;;
16979;SDS011;42288;52.182;21.156;2023-03-23T11:04:25;7.57;;;4.40;;
16979;SDS011;42288;52.182;21.156;2023-03-23T11:06:52;10.85;;;4.03;;
16979;SDS011;42288;52.182;21.156;2023-03-23T11:09:20;7.63;;;3.95;;
16979;SDS011;42288;52.182;21.156;2023-03-23T11:11:57;10.27;;;4.20;;
16979;SDS011;42288;52.182;21.156;2023-03-23T11:16:57;8.37;;;4.03;;
16979;SDS011;42288;52.182;21.156;2023-03-23T11:19:29;4.93;;;3.13;;
16979;SDS011;42288;52.182;21.156;2023-03-23T11:22:17;5.70;;;3.40;;
16979;SDS011;42288;52.182;21.156;2023-03-23T11:24:59;6.60;;;3.17;;
16979;SDS011;42288;52.182;21.156;2023-03-23T11:27:27;6.85;;;3.70;;
16979;SDS011;42288;52.182;21.156;2023-03-23T11:29:54;6.75;;;3.55;;
16979;SDS011;42288;52.182;21.156;2023-03-23T11:32:22;5.20;;;3.20;;
16979;SDS011;42288;52.182;21.156;2023-03-23T11:34:55;7.05;;;3.40;;
16979;SDS011;42288;52.182;21.156;2023-03-23T11:40:22;6.22;;;3.50;;
16979;SDS011;42288;52.182;21.156;2023-03-23T11:45:39;5.70;;;3.77;;
16979;SDS011;42288;52.182;21.156;2023-03-23T11:50:51;5.80;;;3.55;;
16979;SDS011;42288;52.182;21.156;2023-03-23T11:56:34;6.65;;;3.90;;
16979;SDS011;42288;52.182;21.156;2023-03-23T11:59:02;4.93;;;3.15;;
16979;SDS011;42288;52.182;21.156;2023-03-23T12:01:45;6.47;;;3.63;;
16979;SDS011;42288;52.182;21.156;2023-03-23T12:07:24;23.60;;;12.70;;
16979;SDS011;42288;52.182;21.156;2023-03-23T12:24:13;4.10;;;2.43;;
16979;SDS011;42288;52.182;21.156;2023-03-23T12:27:01;5.63;;;2.20;;
16979;SDS011;42288;52.182;21.156;2023-03-23T12:35:07;7.33;;;3.17;;
16979;SDS011;42288;52.182;21.156;2023-03-23T12:43:13;6.57;;;3.03;;
16979;SDS011;42288;52.182;21.156;2023-03-23T12:48:35;5.17;;;3.10;;
16979;SDS011;42288;52.182;21.156;2023-03-23T12:56:28;6.90;;;3.93;;
16979;SDS011;42288;52.182;21.156;2023-03-23T12:59:01;7.03;;;3.77;;
16979;SDS011;42288;52.182;21.156;2023-03-23T13:01:32;6.13;;;3.37;;
16979;SDS011;42288;52.182;21.156;2023-03-23T13:04:09;7.37;;;3.40;;
16979;SDS011;42288;52.182;21.156;2023-03-23T13:06:47;6.37;;;3.80;;
16979;SDS011;42288;52.182;21.156;2023-03-23T13:09:22;6.53;;;3.83;;
16979;SDS011;42288;52.182;21.156;2023-03-23T13:12:02;7.43;;;3.93;;
16979;SDS011;42288;52.182;21.156;2023-03-23T13:14:50;8.03;;;4.20;;
16979;SDS011;42288;52.182;21.156;2023-03-23T13:23:19;5.80;;;3.33;;
16979;SDS011;42288;52.182;21.156;2023-03-23T13:26:03;8.17;;;3.30;;
16979;SDS011;42288;52.182;21.156;2023-03-23T13:28:47;8.50;;;3.63;;
16979;SDS011;42288;52.182;21.156;2023-03-23T13:31:19;7.23;;;3.23;;
16979;SDS011;42288;52.182;21.156;2023-03-23T13:33:50;7.10;;;3.50;;
16979;SDS011;42288;52.182;21.156;2023-03-23T13:36:28;6.77;;;3.47;;
16979;SDS011;42288;52.182;21.156;2023-03-23T13:38:56;8.97;;;5.40;;
16979;SDS011;42288;52.182;21.156;2023-03-23T13:41:24;6.30;;;3.50;;
16979;SDS011;42288;52.182;21.156;2023-03-23T13:43:52;7.87;;;3.20;;
16979;SDS011;42288;52.182;21.156;2023-03-23T13:48:48;6.80;;;3.43;;
16979;SDS011;42288;52.182;21.156;2023-03-23T13:51:24;7.57;;;3.40;;
16979;SDS011;42288;52.182;21.156;2023-03-23T13:57:24;5.00;;;3.63;;
16979;SDS011;42288;52.182;21.156;2023-03-23T13:59:56;4.17;;;2.67;;
16979;SDS011;42288;52.182;21.156;2023-03-23T14:05:09;5.53;;;2.40;;
16979;SDS011;42288;52.182;21.156;2023-03-23T14:08:01;8.97;;;2.27;;
16979;SDS011;42288;52.182;21.156;2023-03-23T14:10:33;5.63;;;2.37;;
16979;SDS011;42288;52.182;21.156;2023-03-23T14:13:03;5.70;;;2.10;;
16979;SDS011;42288;52.182;21.156;2023-03-23T14:15:31;6.57;;;2.50;;
16979;SDS011;42288;52.182;21.156;2023-03-23T14:18:11;3.20;;;2.07;;
16979;SDS011;42288;52.182;21.156;2023-03-23T14:20:40;6.03;;;2.30;;
16979;SDS011;42288;52.182;21.156;2023-03-23T14:23:13;3.97;;;2.63;;
16979;SDS011;42288;52.182;21.156;2023-03-23T14:25:41;6.80;;;2.73;;
16979;SDS011;42288;52.182;21.156;2023-03-23T14:28:16;3.43;;;2.27;;
16979;SDS011;42288;52.182;21.156;2023-03-23T14:30:43;6.63;;;2.30;;
16979;SDS011;42288;52.182;21.156;2023-03-23T14:33:10;7.53;;;2.53;;
16979;SDS011;42288;52.182;21.156;2023-03-23T14:35:39;7.07;;;2.80;;
16979;SDS011;42288;52.182;21.156;2023-03-23T14:38:11;5.17;;;2.80;;
16979;SDS011;42288;52.182;21.156;2023-03-23T14:40:45;8.67;;;3.00;;
16979;SDS011;42288;52.182;21.156;2023-03-23T14:43:13;4.03;;;2.50;;
16979;SDS011;42288;52.182;21.156;2023-03-23T14:45:41;5.17;;;3.00;;
16979;SDS011;42288;52.182;21.156;2023-03-23T14:48:08;7.73;;;3.57;;
16979;SDS011;42288;52.182;21.156;2023-03-23T14:56:06;5.17;;;2.97;;
16979;SDS011;42288;52.182;21.156;2023-03-23T14:58:43;10.67;;;3.30;;
16979;SDS011;42288;52.182;21.156;2023-03-23T15:01:10;7.60;;;3.20;;
16979;SDS011;42288;52.182;21.156;2023-03-23T15:03:41;6.10;;;3.13;;
16979;SDS011;42288;52.182;21.156;2023-03-23T15:06:15;5.77;;;2.87;;
16979;SDS011;42288;52.182;21.156;2023-03-23T15:08:43;10.67;;;3.77;;
16979;SDS011;42288;52.182;21.156;2023-03-23T15:13:48;6.87;;;3.23;;
16979;SDS011;42288;52.182;21.156;2023-03-23T15:16:23;6.70;;;3.10;;
16979;SDS011;42288;52.182;21.156;2023-03-23T15:18:50;6.67;;;3.20;;
16979;SDS011;42288;52.182;21.156;2023-03-23T15:21:24;9.93;;;3.27;;
16979;SDS011;42288;52.182;21.156;2023-03-23T15:23:56;6.20;;;3.03;;
16979;SDS011;42288;52.182;21.156;2023-03-23T15:26:34;9.63;;;3.73;;
16979;SDS011;42288;52.182;21.156;2023-03-23T15:31:33;7.40;;;3.77;;
16979;SDS011;42288;52.182;21.156;2023-03-23T15:34:33;6.13;;;3.70;;
16979;SDS011;42288;52.182;21.156;2023-03-23T15:37:05;7.30;;;3.57;;
16979;SDS011;42288;52.182;21.156;2023-03-23T15:39:42;8.37;;;4.63;;
16979;SDS011;42288;52.182;21.156;2023-03-23T15:42:19;10.10;;;4.40;;
16979;SDS011;42288;52.182;21.156;2023-03-23T15:44:56;10.90;;;4.20;;
16979;SDS011;42288;52.182;21.156;2023-03-23T15:47:35;7.63;;;4.10;;
16979;SDS011;42288;52.182;21.156;2023-03-23T15:50:13;8.27;;;4.43;;
16979;SDS011;42288;52.182;21.156;2023-03-23T15:52:43;7.50;;;3.97;;
16979;SDS011;42288;52.182;21.156;2023-03-23T15:55:24;9.27;;;4.60;;
16979;SDS011;42288;52.182;21.156;2023-03-23T15:57:56;9.37;;;4.53;;
16979;SDS011;42288;52.182;21.156;2023-03-23T16:00:25;8.23;;;4.23;;
16979;SDS011;42288;52.182;21.156;2023-03-23T16:03:01;9.40;;;3.97;;
16979;SDS011;42288;52.182;21.156;2023-03-23T16:05:31;7.97;;;4.70;;
16979;SDS011;42288;52.182;21.156;2023-03-23T16:07:58;8.23;;;4.80;;
16979;SDS011;42288;52.182;21.156;2023-03-23T16:10:24;10.23;;;4.57;;
16979;SDS011;42288;52.182;21.156;2023-03-23T16:12:51;9.87;;;4.10;;
16979;SDS011;42288;52.182;21.156;2023-03-23T16:15:17;10.97;;;4.87;;
16979;SDS011;42288;52.182;21.156;2023-03-23T16:17:43;10.63;;;3.97;;
16979;SDS011;42288;52.182;21.156;2023-03-23T16:20:15;9.97;;;4.40;;
16979;SDS011;42288;52.182;21.156;2023-03-23T16:22:42;8.43;;;3.83;;
16979;SDS011;42288;52.182;21.156;2023-03-23T16:25:08;5.30;;;3.30;;
16979;SDS011;42288;52.182;21.156;2023-03-23T16:27:34;9.10;;;4.17;;
16979;SDS011;42288;52.182;21.156;2023-03-23T16:30:00;8.27;;;4.03;;
16979;SDS011;42288;52.182;21.156;2023-03-23T16:32:28;10.77;;;3.53;;
16979;SDS011;42288;52.182;21.156;2023-03-23T16:34:54;10.40;;;4.20;;